sensor_id;sensor_type;location;lat;lon;timestamp;temperature;humidity
736;DHT22;352;48.626;9.238;2022-10-03T00:01:42;13.20;99.90
736;DHT22;352;48.626;9.238;2022-10-03T00:04:25;13.10;99.90
736;DHT22;352;48.626;9.238;2022-10-03T00:07:04;13.10;99.90
736;DHT22;352;48.626;9.238;2022-10-03T00:09:48;13.10;99.90
736;DHT22;352;48.626;9.238;2022-10-03T00:12:37;13.00;99.90
736;DHT22;352;48.626;9.238;2022-10-03T00:15:09;13.10;99.90
736;DHT22;352;48.626;9.238;2022-10-03T00:17:43;13.00;99.90
736;DHT22;352;48.626;9.238;2022-10-03T00:20:34;13.00;99.90
736;DHT22;352;48.626;9.238;2022-10-03T00:23:07;13.00;99.90
736;DHT22;352;48.626;9.238;2022-10-03T00:25:42;13.00;99.90
736;DHT22;352;48.626;9.238;2022-10-03T00:28:19;13.00;99.90
736;DHT22;352;48.626;9.238;2022-10-03T00:31:06;12.90;99.90
736;DHT22;352;48.626;9.238;2022-10-03T00:33:45;12.90;99.90
736;DHT22;352;48.626;9.238;2022-10-03T00:36:23;12.80;99.90
736;DHT22;352;48.626;9.238;2022-10-03T00:39:15;12.80;99.90
736;DHT22;352;48.626;9.238;2022-10-03T00:45:33;12.80;99.90
736;DHT22;352;48.626;9.238;2022-10-03T00:48:23;12.70;99.90
736;DHT22;352;48.626;9.238;2022-10-03T00:51:05;12.70;99.90
736;DHT22;352;48.626;9.238;2022-10-03T00:53:41;12.60;99.90
736;DHT22;352;48.626;9.238;2022-10-03T00:56:22;12.60;99.90
736;DHT22;352;48.626;9.238;2022-10-03T00:59:04;12.50;99.90
736;DHT22;352;48.626;9.238;2022-10-03T01:01:37;12.50;99.90
736;DHT22;352;48.626;9.238;2022-10-03T01:04:32;12.40;99.90
736;DHT22;352;48.626;9.238;2022-10-03T01:07:20;12.30;99.90
736;DHT22;352;48.626;9.238;2022-10-03T01:09:59;12.30;99.90
736;DHT22;352;48.626;9.238;2022-10-03T01:12:48;12.20;99.90
736;DHT22;352;48.626;9.238;2022-10-03T01:15:26;12.20;99.90
736;DHT22;352;48.626;9.238;2022-10-03T01:18:09;12.20;99.90
736;DHT22;352;48.626;9.238;2022-10-03T01:20:46;12.20;99.90
736;DHT22;352;48.626;9.238;2022-10-03T01:29:39;12.20;99.90
736;DHT22;352;48.626;9.238;2022-10-03T01:32:32;12.10;99.90
736;DHT22;352;48.626;9.238;2022-10-03T01:35:09;12.10;99.90
736;DHT22;352;48.626;9.238;2022-10-03T01:37:44;12.10;99.90
736;DHT22;352;48.626;9.238;2022-10-03T01:40:20;12.10;99.90
736;DHT22;352;48.626;9.238;2022-10-03T01:43:04;12.10;99.90
736;DHT22;352;48.626;9.238;2022-10-03T01:45:42;12.10;99.90
736;DHT22;352;48.626;9.238;2022-10-03T01:48:16;12.10;99.90
736;DHT22;352;48.626;9.238;2022-10-03T01:50:51;12.20;99.90
736;DHT22;352;48.626;9.238;2022-10-03T01:53:28;12.20;99.90
736;DHT22;352;48.626;9.238;2022-10-03T01:56:01;12.30;99.90
736;DHT22;352;48.626;9.238;2022-10-03T01:58:34;12.30;99.90
736;DHT22;352;48.626;9.238;2022-10-03T02:01:09;12.30;99.90
736;DHT22;352;48.626;9.238;2022-10-03T02:03:44;12.30;99.90
736;DHT22;352;48.626;9.238;2022-10-03T02:06:22;12.30;99.90
736;DHT22;352;48.626;9.238;2022-10-03T02:08:55;12.30;99.90
736;DHT22;352;48.626;9.238;2022-10-03T02:11:31;12.30;99.90
736;DHT22;352;48.626;9.238;2022-10-03T02:14:12;12.40;99.90
736;DHT22;352;48.626;9.238;2022-10-03T02:16:45;12.40;99.90
736;DHT22;352;48.626;9.238;2022-10-03T02:19:24;12.40;99.90
736;DHT22;352;48.626;9.238;2022-10-03T02:21:56;12.40;99.90
736;DHT22;352;48.626;9.238;2022-10-03T02:24:38;12.40;99.90
736;DHT22;352;48.626;9.238;2022-10-03T02:27:26;12.30;99.90
736;DHT22;352;48.626;9.238;2022-10-03T02:30:16;12.30;99.90
736;DHT22;352;48.626;9.238;2022-10-03T02:39:29;12.40;99.90
736;DHT22;352;48.626;9.238;2022-10-03T02:42:22;12.40;99.90
736;DHT22;352;48.626;9.238;2022-10-03T02:45:31;12.40;99.90
736;DHT22;352;48.626;9.238;2022-10-03T02:51:23;12.40;99.90
736;DHT22;352;48.626;9.238;2022-10-03T03:00:11;12.50;99.90
736;DHT22;352;48.626;9.238;2022-10-03T03:02:59;12.50;99.90
736;DHT22;352;48.626;9.238;2022-10-03T03:05:58;12.40;99.90
736;DHT22;352;48.626;9.238;2022-10-03T03:09:01;12.40;99.90
736;DHT22;352;48.626;9.238;2022-10-03T03:12:03;12.30;99.90
736;DHT22;352;48.626;9.238;2022-10-03T03:14:58;12.20;99.90
736;DHT22;352;48.626;9.238;2022-10-03T03:17:34;12.20;99.90
736;DHT22;352;48.626;9.238;2022-10-03T03:20:38;12.10;99.90
736;DHT22;352;48.626;9.238;2022-10-03T03:23:28;12.10;99.90
736;DHT22;352;48.626;9.238;2022-10-03T03:26:20;12.10;99.90
736;DHT22;352;48.626;9.238;2022-10-03T03:28:59;12.10;99.90
736;DHT22;352;48.626;9.238;2022-10-03T03:31:34;12.10;99.90
736;DHT22;352;48.626;9.238;2022-10-03T03:34:11;12.10;99.90
736;DHT22;352;48.626;9.238;2022-10-03T03:36:51;12.00;99.90
736;DHT22;352;48.626;9.238;2022-10-03T03:39:40;12.00;99.90
736;DHT22;352;48.626;9.238;2022-10-03T03:42:27;11.90;99.90
736;DHT22;352;48.626;9.238;2022-10-03T03:45:15;11.90;99.90
736;DHT22;352;48.626;9.238;2022-10-03T03:48:07;11.90;99.90
736;DHT22;352;48.626;9.238;2022-10-03T03:50:54;11.80;99.90
736;DHT22;352;48.626;9.238;2022-10-03T03:53:55;11.80;99.90
736;DHT22;352;48.626;9.238;2022-10-03T03:59:52;11.70;99.90
736;DHT22;352;48.626;9.238;2022-10-03T04:09:33;11.50;99.90
736;DHT22;352;48.626;9.238;2022-10-03T04:12:42;11.50;99.90
736;DHT22;352;48.626;9.238;2022-10-03T04:15:46;11.40;99.90
736;DHT22;352;48.626;9.238;2022-10-03T04:18:45;11.40;99.90
736;DHT22;352;48.626;9.238;2022-10-03T04:21:54;11.40;99.90
736;DHT22;352;48.626;9.238;2022-10-03T04:24:54;11.50;99.90
736;DHT22;352;48.626;9.238;2022-10-03T04:28:04;11.50;99.90
736;DHT22;352;48.626;9.238;2022-10-03T04:30:58;11.60;99.90
736;DHT22;352;48.626;9.238;2022-10-03T04:33:44;11.60;99.90
736;DHT22;352;48.626;9.238;2022-10-03T04:39:22;11.70;99.90
736;DHT22;352;48.626;9.238;2022-10-03T04:42:00;11.70;99.90
736;DHT22;352;48.626;9.238;2022-10-03T04:44:39;11.70;99.90
736;DHT22;352;48.626;9.238;2022-10-03T04:47:17;11.70;99.90
736;DHT22;352;48.626;9.238;2022-10-03T04:49:52;11.80;99.90
736;DHT22;352;48.626;9.238;2022-10-03T04:52:26;11.80;99.90
736;DHT22;352;48.626;9.238;2022-10-03T04:55:02;11.90;99.90
736;DHT22;352;48.626;9.238;2022-10-03T04:57:41;11.90;99.90
736;DHT22;352;48.626;9.238;2022-10-03T05:00:21;11.90;99.90
736;DHT22;352;48.626;9.238;2022-10-03T05:02:54;11.90;99.90
736;DHT22;352;48.626;9.238;2022-10-03T05:05:42;11.90;99.90
736;DHT22;352;48.626;9.238;2022-10-03T05:08:21;11.90;99.90
736;DHT22;352;48.626;9.238;2022-10-03T05:11:17;11.90;99.90
736;DHT22;352;48.626;9.238;2022-10-03T05:13:58;11.90;99.90
736;DHT22;352;48.626;9.238;2022-10-03T05:16:38;12.00;99.90
736;DHT22;352;48.626;9.238;2022-10-03T05:22:31;12.00;99.90
736;DHT22;352;48.626;9.238;2022-10-03T05:25:15;12.00;99.90
736;DHT22;352;48.626;9.238;2022-10-03T05:28:03;12.10;99.90
736;DHT22;352;48.626;9.238;2022-10-03T05:30:40;12.10;99.90
736;DHT22;352;48.626;9.238;2022-10-03T05:33:18;12.10;99.90
736;DHT22;352;48.626;9.238;2022-10-03T05:36:10;12.20;99.90
736;DHT22;352;48.626;9.238;2022-10-03T05:41:52;12.20;99.90
736;DHT22;352;48.626;9.238;2022-10-03T05:44:31;12.20;99.90
736;DHT22;352;48.626;9.238;2022-10-03T05:47:07;12.30;99.90
736;DHT22;352;48.626;9.238;2022-10-03T05:50:24;12.30;99.90
736;DHT22;352;48.626;9.238;2022-10-03T05:56:12;12.30;99.90
736;DHT22;352;48.626;9.238;2022-10-03T05:59:04;12.40;99.90
736;DHT22;352;48.626;9.238;2022-10-03T06:02:07;12.40;99.90
736;DHT22;352;48.626;9.238;2022-10-03T06:17:58;12.60;99.90
736;DHT22;352;48.626;9.238;2022-10-03T08:26:52;15.80;99.90
736;DHT22;352;48.626;9.238;2022-10-03T08:29:55;15.70;99.90
736;DHT22;352;48.626;9.238;2022-10-03T08:38:56;15.70;99.90
736;DHT22;352;48.626;9.238;2022-10-03T08:44:59;15.80;99.90
736;DHT22;352;48.626;9.238;2022-10-03T08:54:05;15.90;99.90
736;DHT22;352;48.626;9.238;2022-10-03T08:56:47;15.90;99.90
736;DHT22;352;48.626;9.238;2022-10-03T09:06:13;15.90;99.90
736;DHT22;352;48.626;9.238;2022-10-03T09:09:18;15.90;99.90
736;DHT22;352;48.626;9.238;2022-10-03T09:15:08;16.10;99.90
736;DHT22;352;48.626;9.238;2022-10-03T09:18:09;16.20;99.90
736;DHT22;352;48.626;9.238;2022-10-03T09:24:22;16.50;99.90
736;DHT22;352;48.626;9.238;2022-10-03T09:40:05;18.00;99.90
736;DHT22;352;48.626;9.238;2022-10-03T09:43:08;19.00;99.90
736;DHT22;352;48.626;9.238;2022-10-03T09:46:04;19.50;99.90
736;DHT22;352;48.626;9.238;2022-10-03T09:48:51;19.20;99.90
736;DHT22;352;48.626;9.238;2022-10-03T09:51:46;19.20;99.90
736;DHT22;352;48.626;9.238;2022-10-03T09:57:58;18.80;99.90
736;DHT22;352;48.626;9.238;2022-10-03T10:00:39;18.50;99.90
736;DHT22;352;48.626;9.238;2022-10-03T10:54:23;26.10;75.70
736;DHT22;352;48.626;9.238;2022-10-03T10:57:14;25.10;78.50
736;DHT22;352;48.626;9.238;2022-10-03T11:00:17;24.80;82.80
736;DHT22;352;48.626;9.238;2022-10-03T11:06:29;23.70;79.20
736;DHT22;352;48.626;9.238;2022-10-03T11:16:09;21.50;86.50
736;DHT22;352;48.626;9.238;2022-10-03T11:22:28;20.60;92.20
736;DHT22;352;48.626;9.238;2022-10-03T11:28:48;20.00;93.80
736;DHT22;352;48.626;9.238;2022-10-03T11:32:08;19.80;94.80
736;DHT22;352;48.626;9.238;2022-10-03T11:37:58;19.40;94.70
736;DHT22;352;48.626;9.238;2022-10-03T11:40:40;19.20;95.80
736;DHT22;352;48.626;9.238;2022-10-03T11:43:40;19.00;96.00
736;DHT22;352;48.626;9.238;2022-10-03T11:46:21;18.90;94.70
736;DHT22;352;48.626;9.238;2022-10-03T11:48:54;18.70;95.80
736;DHT22;352;48.626;9.238;2022-10-03T11:51:36;18.70;96.00
736;DHT22;352;48.626;9.238;2022-10-03T11:54:18;18.50;96.20
736;DHT22;352;48.626;9.238;2022-10-03T11:57:00;18.50;97.30
736;DHT22;352;48.626;9.238;2022-10-03T11:59:55;18.40;96.40
736;DHT22;352;48.626;9.238;2022-10-03T12:02:59;18.40;97.80
736;DHT22;352;48.626;9.238;2022-10-03T12:05:42;18.50;97.40
736;DHT22;352;48.626;9.238;2022-10-03T12:08:21;18.50;97.90
736;DHT22;352;48.626;9.238;2022-10-03T12:11:16;18.60;97.60
736;DHT22;352;48.626;9.238;2022-10-03T12:14:10;18.60;97.80
736;DHT22;352;48.626;9.238;2022-10-03T12:16:53;18.60;96.80
736;DHT22;352;48.626;9.238;2022-10-03T12:19:28;18.60;96.50
736;DHT22;352;48.626;9.238;2022-10-03T12:22:08;18.50;97.80
736;DHT22;352;48.626;9.238;2022-10-03T12:24:40;18.50;98.30
736;DHT22;352;48.626;9.238;2022-10-03T12:27:20;18.60;98.00
736;DHT22;352;48.626;9.238;2022-10-03T12:29:55;18.50;97.90
736;DHT22;352;48.626;9.238;2022-10-03T12:32:31;18.40;98.10
736;DHT22;352;48.626;9.238;2022-10-03T12:40:49;18.20;98.00
736;DHT22;352;48.626;9.238;2022-10-03T12:44:18;18.20;97.60
736;DHT22;352;48.626;9.238;2022-10-03T12:51:16;18.10;97.90
736;DHT22;352;48.626;9.238;2022-10-03T12:59:35;18.00;96.50
736;DHT22;352;48.626;9.238;2022-10-03T13:02:26;18.00;96.30
736;DHT22;352;48.626;9.238;2022-10-03T13:07:41;18.00;96.30
736;DHT22;352;48.626;9.238;2022-10-03T13:10:17;17.90;97.00
736;DHT22;352;48.626;9.238;2022-10-03T13:12:48;17.90;96.80
736;DHT22;352;48.626;9.238;2022-10-03T13:15:45;17.80;96.10
736;DHT22;352;48.626;9.238;2022-10-03T13:18:28;17.70;96.10
736;DHT22;352;48.626;9.238;2022-10-03T13:21:04;17.70;96.30
736;DHT22;352;48.626;9.238;2022-10-03T13:23:41;17.90;95.70
736;DHT22;352;48.626;9.238;2022-10-03T13:26:15;18.00;95.20
736;DHT22;352;48.626;9.238;2022-10-03T13:29:05;17.90;93.90
736;DHT22;352;48.626;9.238;2022-10-03T13:32:03;17.90;94.80
736;DHT22;352;48.626;9.238;2022-10-03T13:34:35;18.00;95.30
736;DHT22;352;48.626;9.238;2022-10-03T13:37:07;18.20;96.20
736;DHT22;352;48.626;9.238;2022-10-03T13:39:44;18.40;96.80
736;DHT22;352;48.626;9.238;2022-10-03T13:42:20;18.40;95.60
736;DHT22;352;48.626;9.238;2022-10-03T13:44:58;18.50;96.40
736;DHT22;352;48.626;9.238;2022-10-03T13:51:32;18.10;96.00
736;DHT22;352;48.626;9.238;2022-10-03T13:54:41;18.10;96.40
736;DHT22;352;48.626;9.238;2022-10-03T13:57:22;18.00;96.90
736;DHT22;352;48.626;9.238;2022-10-03T14:27:27;17.70;94.80
736;DHT22;352;48.626;9.238;2022-10-03T14:30:02;17.70;95.00
736;DHT22;352;48.626;9.238;2022-10-03T14:32:37;17.80;94.10
736;DHT22;352;48.626;9.238;2022-10-03T14:35:16;17.70;94.60
736;DHT22;352;48.626;9.238;2022-10-03T14:37:57;17.60;94.50
736;DHT22;352;48.626;9.238;2022-10-03T14:40:35;17.70;95.30
736;DHT22;352;48.626;9.238;2022-10-03T14:43:19;17.70;95.10
736;DHT22;352;48.626;9.238;2022-10-03T14:51:19;17.60;95.30
736;DHT22;352;48.626;9.238;2022-10-03T14:53:56;17.50;95.20
736;DHT22;352;48.626;9.238;2022-10-03T14:56:28;17.50;95.60
736;DHT22;352;48.626;9.238;2022-10-03T14:59:00;17.60;95.40
736;DHT22;352;48.626;9.238;2022-10-03T15:01:27;17.60;95.90
736;DHT22;352;48.626;9.238;2022-10-03T15:04:00;17.60;95.90
736;DHT22;352;48.626;9.238;2022-10-03T15:09:09;17.60;95.90
736;DHT22;352;48.626;9.238;2022-10-03T15:11:44;17.50;95.60
736;DHT22;352;48.626;9.238;2022-10-03T15:17:34;17.50;96.00
736;DHT22;352;48.626;9.238;2022-10-03T15:20:04;17.60;94.60
736;DHT22;352;48.626;9.238;2022-10-03T15:22:37;17.50;95.30
736;DHT22;352;48.626;9.238;2022-10-03T15:25:10;17.40;95.50
736;DHT22;352;48.626;9.238;2022-10-03T15:27:40;17.40;95.00
736;DHT22;352;48.626;9.238;2022-10-03T15:30:18;17.40;94.60
736;DHT22;352;48.626;9.238;2022-10-03T15:32:47;17.30;94.70
736;DHT22;352;48.626;9.238;2022-10-03T15:35:23;17.30;94.40
736;DHT22;352;48.626;9.238;2022-10-03T15:37:52;17.40;94.60
736;DHT22;352;48.626;9.238;2022-10-03T15:40:28;17.40;94.50
736;DHT22;352;48.626;9.238;2022-10-03T15:43:02;17.40;94.30
736;DHT22;352;48.626;9.238;2022-10-03T15:45:36;17.40;95.00
736;DHT22;352;48.626;9.238;2022-10-03T15:48:19;17.40;95.20
736;DHT22;352;48.626;9.238;2022-10-03T15:50:50;17.50;94.90
736;DHT22;352;48.626;9.238;2022-10-03T15:53:21;17.50;94.80
736;DHT22;352;48.626;9.238;2022-10-03T15:55:50;17.50;94.90
736;DHT22;352;48.626;9.238;2022-10-03T15:58:21;17.40;95.50
736;DHT22;352;48.626;9.238;2022-10-03T16:01:00;17.40;96.00
736;DHT22;352;48.626;9.238;2022-10-03T16:03:33;17.40;95.70
736;DHT22;352;48.626;9.238;2022-10-03T16:06:09;17.30;96.30
736;DHT22;352;48.626;9.238;2022-10-03T16:08:45;17.20;96.40
736;DHT22;352;48.626;9.238;2022-10-03T16:11:18;17.20;96.70
736;DHT22;352;48.626;9.238;2022-10-03T16:13:54;17.10;97.10
736;DHT22;352;48.626;9.238;2022-10-03T16:16:30;17.00;97.30
736;DHT22;352;48.626;9.238;2022-10-03T16:19:37;16.90;97.50
736;DHT22;352;48.626;9.238;2022-10-03T16:22:21;16.80;97.20
736;DHT22;352;48.626;9.238;2022-10-03T16:25:01;16.70;97.10
736;DHT22;352;48.626;9.238;2022-10-03T16:27:33;16.70;97.70
736;DHT22;352;48.626;9.238;2022-10-03T16:30:15;16.60;98.00
736;DHT22;352;48.626;9.238;2022-10-03T16:32:58;16.50;98.60
736;DHT22;352;48.626;9.238;2022-10-03T16:35:34;16.40;98.80
736;DHT22;352;48.626;9.238;2022-10-03T16:38:05;16.30;99.20
736;DHT22;352;48.626;9.238;2022-10-03T16:40:34;16.20;99.40
736;DHT22;352;48.626;9.238;2022-10-03T16:43:03;16.10;99.60
736;DHT22;352;48.626;9.238;2022-10-03T16:48:11;16.00;99.40
736;DHT22;352;48.626;9.238;2022-10-03T16:51:05;15.90;99.40
736;DHT22;352;48.626;9.238;2022-10-03T16:53:40;15.80;99.70
736;DHT22;352;48.626;9.238;2022-10-03T17:04:10;15.60;99.90
736;DHT22;352;48.626;9.238;2022-10-03T17:06:44;15.50;99.90
736;DHT22;352;48.626;9.238;2022-10-03T17:09:24;15.40;99.90
736;DHT22;352;48.626;9.238;2022-10-03T17:12:06;15.30;99.90
736;DHT22;352;48.626;9.238;2022-10-03T17:14:42;15.20;99.90
736;DHT22;352;48.626;9.238;2022-10-03T17:17:27;15.10;99.90
736;DHT22;352;48.626;9.238;2022-10-03T17:20:03;15.10;99.90
736;DHT22;352;48.626;9.238;2022-10-03T17:22:43;15.00;99.90
736;DHT22;352;48.626;9.238;2022-10-03T17:25:34;15.00;99.90
736;DHT22;352;48.626;9.238;2022-10-03T17:28:10;14.90;99.90
736;DHT22;352;48.626;9.238;2022-10-03T17:30:45;14.80;99.90
736;DHT22;352;48.626;9.238;2022-10-03T17:33:19;14.80;99.90
736;DHT22;352;48.626;9.238;2022-10-03T17:35:56;14.70;99.90
736;DHT22;352;48.626;9.238;2022-10-03T17:38:29;14.60;99.90
736;DHT22;352;48.626;9.238;2022-10-03T17:41:12;14.50;99.90
736;DHT22;352;48.626;9.238;2022-10-03T17:43:47;14.50;99.90
736;DHT22;352;48.626;9.238;2022-10-03T17:46:20;14.40;99.90
736;DHT22;352;48.626;9.238;2022-10-03T17:48:55;14.30;99.90
736;DHT22;352;48.626;9.238;2022-10-03T17:51:33;14.30;99.90
736;DHT22;352;48.626;9.238;2022-10-03T17:54:07;14.20;99.90
736;DHT22;352;48.626;9.238;2022-10-03T17:56:40;14.20;99.90
736;DHT22;352;48.626;9.238;2022-10-03T17:59:13;14.10;99.90
736;DHT22;352;48.626;9.238;2022-10-03T18:01:42;14.00;99.90
736;DHT22;352;48.626;9.238;2022-10-03T18:04:15;14.00;99.90
736;DHT22;352;48.626;9.238;2022-10-03T18:06:45;13.90;99.90
736;DHT22;352;48.626;9.238;2022-10-03T18:09:27;13.90;99.90
736;DHT22;352;48.626;9.238;2022-10-03T18:12:03;13.80;99.90
736;DHT22;352;48.626;9.238;2022-10-03T18:14:41;13.70;99.90
736;DHT22;352;48.626;9.238;2022-10-03T18:17:15;13.60;99.90
736;DHT22;352;48.626;9.238;2022-10-03T18:19:54;13.60;99.90
736;DHT22;352;48.626;9.238;2022-10-03T18:22:28;13.60;99.90
736;DHT22;352;48.626;9.238;2022-10-03T18:25:01;13.50;99.90
736;DHT22;352;48.626;9.238;2022-10-03T18:28:05;13.50;99.90
736;DHT22;352;48.626;9.238;2022-10-03T18:30:39;13.40;99.90
736;DHT22;352;48.626;9.238;2022-10-03T18:33:12;13.40;99.90
736;DHT22;352;48.626;9.238;2022-10-03T18:35:42;13.30;99.90
736;DHT22;352;48.626;9.238;2022-10-03T18:38:15;13.30;99.90
736;DHT22;352;48.626;9.238;2022-10-03T18:40:48;13.30;99.90
736;DHT22;352;48.626;9.238;2022-10-03T18:43:27;13.20;99.90
736;DHT22;352;48.626;9.238;2022-10-03T18:45:59;13.20;99.90
736;DHT22;352;48.626;9.238;2022-10-03T18:48:34;13.20;99.90
736;DHT22;352;48.626;9.238;2022-10-03T18:51:10;13.10;99.90
736;DHT22;352;48.626;9.238;2022-10-03T18:53:43;13.10;99.90
736;DHT22;352;48.626;9.238;2022-10-03T18:56:18;13.00;99.90
736;DHT22;352;48.626;9.238;2022-10-03T18:58:55;12.90;99.90
736;DHT22;352;48.626;9.238;2022-10-03T19:01:27;12.90;99.90
736;DHT22;352;48.626;9.238;2022-10-03T19:03:59;12.90;99.90
736;DHT22;352;48.626;9.238;2022-10-03T19:06:28;12.80;99.90
736;DHT22;352;48.626;9.238;2022-10-03T19:09:00;12.80;99.90
736;DHT22;352;48.626;9.238;2022-10-03T19:11:34;12.80;99.90
736;DHT22;352;48.626;9.238;2022-10-03T19:14:07;12.70;99.90
736;DHT22;352;48.626;9.238;2022-10-03T19:16:46;12.70;99.90
736;DHT22;352;48.626;9.238;2022-10-03T19:19:21;12.70;99.90
736;DHT22;352;48.626;9.238;2022-10-03T19:21:49;12.60;99.90
736;DHT22;352;48.626;9.238;2022-10-03T19:24:19;12.60;99.90
736;DHT22;352;48.626;9.238;2022-10-03T19:26:49;12.60;99.90
736;DHT22;352;48.626;9.238;2022-10-03T19:29:21;12.50;99.90
736;DHT22;352;48.626;9.238;2022-10-03T19:31:57;12.50;99.90
736;DHT22;352;48.626;9.238;2022-10-03T19:34:29;12.50;99.90
736;DHT22;352;48.626;9.238;2022-10-03T19:36:58;12.40;99.90
736;DHT22;352;48.626;9.238;2022-10-03T19:39:28;12.40;99.90
736;DHT22;352;48.626;9.238;2022-10-03T19:42:20;12.30;99.90
736;DHT22;352;48.626;9.238;2022-10-03T19:44:50;12.30;99.90
736;DHT22;352;48.626;9.238;2022-10-03T19:47:22;12.20;99.90
736;DHT22;352;48.626;9.238;2022-10-03T19:50:00;12.20;99.90
736;DHT22;352;48.626;9.238;2022-10-03T19:53:22;12.20;99.90
736;DHT22;352;48.626;9.238;2022-10-03T20:39:06;11.50;99.90
736;DHT22;352;48.626;9.238;2022-10-03T20:41:46;11.50;99.90
736;DHT22;352;48.626;9.238;2022-10-03T20:44:22;11.40;99.90
736;DHT22;352;48.626;9.238;2022-10-03T20:49:30;11.40;99.90
736;DHT22;352;48.626;9.238;2022-10-03T20:52:02;11.40;99.90
736;DHT22;352;48.626;9.238;2022-10-03T20:54:46;11.30;99.90
736;DHT22;352;48.626;9.238;2022-10-03T20:57:17;11.30;99.90
736;DHT22;352;48.626;9.238;2022-10-03T20:59:47;11.30;99.90
736;DHT22;352;48.626;9.238;2022-10-03T21:02:23;11.20;99.90
736;DHT22;352;48.626;9.238;2022-10-03T21:07:51;11.20;99.90
736;DHT22;352;48.626;9.238;2022-10-03T21:10:26;11.10;99.90
736;DHT22;352;48.626;9.238;2022-10-03T21:12:56;11.10;99.90
736;DHT22;352;48.626;9.238;2022-10-03T21:15:33;11.10;99.90
736;DHT22;352;48.626;9.238;2022-10-03T21:18:02;11.00;99.90
736;DHT22;352;48.626;9.238;2022-10-03T21:20:34;11.00;99.90
736;DHT22;352;48.626;9.238;2022-10-03T21:23:10;11.00;99.90
736;DHT22;352;48.626;9.238;2022-10-03T21:25:41;11.00;99.90
736;DHT22;352;48.626;9.238;2022-10-03T21:28:23;10.90;99.90
736;DHT22;352;48.626;9.238;2022-10-03T21:31:04;10.90;99.90
736;DHT22;352;48.626;9.238;2022-10-03T21:33:41;10.90;99.90
736;DHT22;352;48.626;9.238;2022-10-03T21:36:16;10.90;99.90
736;DHT22;352;48.626;9.238;2022-10-03T21:38:48;10.80;99.90
736;DHT22;352;48.626;9.238;2022-10-03T21:41:26;10.80;99.90
736;DHT22;352;48.626;9.238;2022-10-03T21:43:58;10.80;99.90
736;DHT22;352;48.626;9.238;2022-10-03T21:46:35;10.70;99.90
736;DHT22;352;48.626;9.238;2022-10-03T21:49:27;10.70;99.90
736;DHT22;352;48.626;9.238;2022-10-03T21:52:17;10.60;99.90
736;DHT22;352;48.626;9.238;2022-10-03T21:54:57;10.60;99.90
736;DHT22;352;48.626;9.238;2022-10-03T21:57:33;10.60;99.90
736;DHT22;352;48.626;9.238;2022-10-03T22:00:12;10.50;99.90
736;DHT22;352;48.626;9.238;2022-10-03T22:02:50;10.50;99.90
736;DHT22;352;48.626;9.238;2022-10-03T22:05:26;10.50;99.90
736;DHT22;352;48.626;9.238;2022-10-03T22:07:55;10.50;99.90
736;DHT22;352;48.626;9.238;2022-10-03T22:10:26;10.40;99.90
736;DHT22;352;48.626;9.238;2022-10-03T22:12:57;10.40;99.90
736;DHT22;352;48.626;9.238;2022-10-03T22:15:35;10.40;99.90
736;DHT22;352;48.626;9.238;2022-10-03T22:18:09;10.30;99.90
736;DHT22;352;48.626;9.238;2022-10-03T22:20:36;10.30;99.90
736;DHT22;352;48.626;9.238;2022-10-03T22:23:21;10.30;99.90
736;DHT22;352;48.626;9.238;2022-10-03T22:25:59;10.20;99.90
736;DHT22;352;48.626;9.238;2022-10-03T22:28:41;10.20;99.90
736;DHT22;352;48.626;9.238;2022-10-03T22:31:16;10.20;99.90
736;DHT22;352;48.626;9.238;2022-10-03T22:33:55;10.20;99.90
736;DHT22;352;48.626;9.238;2022-10-03T22:36:24;10.20;99.90
736;DHT22;352;48.626;9.238;2022-10-03T22:38:51;10.10;99.90
736;DHT22;352;48.626;9.238;2022-10-03T22:41:22;10.10;99.90
736;DHT22;352;48.626;9.238;2022-10-03T22:43:53;10.10;99.90
736;DHT22;352;48.626;9.238;2022-10-03T22:46:23;10.10;99.90
736;DHT22;352;48.626;9.238;2022-10-03T22:48:57;10.10;99.90
736;DHT22;352;48.626;9.238;2022-10-03T22:51:31;10.00;99.90
736;DHT22;352;48.626;9.238;2022-10-03T22:54:03;10.00;99.90
736;DHT22;352;48.626;9.238;2022-10-03T22:56:42;10.00;99.90
736;DHT22;352;48.626;9.238;2022-10-03T22:59:15;10.00;99.90
736;DHT22;352;48.626;9.238;2022-10-03T23:01:45;9.90;99.90
736;DHT22;352;48.626;9.238;2022-10-03T23:04:17;9.90;99.90
736;DHT22;352;48.626;9.238;2022-10-03T23:07:20;9.80;99.90
736;DHT22;352;48.626;9.238;2022-10-03T23:09:57;9.80;99.90
736;DHT22;352;48.626;9.238;2022-10-03T23:12:28;9.70;99.90
736;DHT22;352;48.626;9.238;2022-10-03T23:14:59;9.70;99.90
736;DHT22;352;48.626;9.238;2022-10-03T23:17:44;9.60;99.90
736;DHT22;352;48.626;9.238;2022-10-03T23:20:25;9.60;99.90
736;DHT22;352;48.626;9.238;2022-10-03T23:22:58;9.60;99.90
736;DHT22;352;48.626;9.238;2022-10-03T23:25:30;9.60;99.90
736;DHT22;352;48.626;9.238;2022-10-03T23:28:09;9.50;99.90
736;DHT22;352;48.626;9.238;2022-10-03T23:30:47;9.50;99.90
736;DHT22;352;48.626;9.238;2022-10-03T23:33:16;9.50;99.90
736;DHT22;352;48.626;9.238;2022-10-03T23:35:44;9.50;99.90
736;DHT22;352;48.626;9.238;2022-10-03T23:41:30;9.40;99.90
736;DHT22;352;48.626;9.238;2022-10-03T23:44:02;9.40;99.90
736;DHT22;352;48.626;9.238;2022-10-03T23:46:47;9.30;99.90
736;DHT22;352;48.626;9.238;2022-10-03T23:49:13;9.30;99.90
736;DHT22;352;48.626;9.238;2022-10-03T23:51:41;9.20;99.90
736;DHT22;352;48.626;9.238;2022-10-03T23:54:11;9.20;99.90
736;DHT22;352;48.626;9.238;2022-10-03T23:56:40;9.20;99.90
736;DHT22;352;48.626;9.238;2022-10-03T23:59:16;9.20;99.90
